Time;durP1;ratioP1;P1;durP2;ratioP2;P2;SDS_P1;SDS_P2;PMS_P1;PMS_P2;Temp;Humidity;BMP_temperature;BMP_pressure;BME280_temperature;BME280_humidity;BME280_pressure;Samples;Min_cycle;Max_cycle;Signal;HPM_P1;HPM_P2
2023/11/20 00:00:56;;;;;;;2.90;1.60;;;;;;;1.09;75.24;101291.31;5059352;28;20049;-68
2023/11/20 00:03:24;;;;;;;1.77;1.30;;;;;;;1.10;75.89;101285.31;5057618;28;20052;-69
2023/11/20 00:05:51;;;;;;;3.65;1.50;;;;;;;1.11;75.82;101288.75;5062715;28;20405;-68
2023/11/20 00:08:18;;;;;;;2.45;1.45;;;;;;;1.12;75.55;101290.53;5060575;28;20048;-69
2023/11/20 00:10:45;;;;;;;3.55;2.10;;;;;;;1.13;75.87;101287.97;5059069;28;20090;-69
2023/11/20 00:13:12;;;;;;;3.47;1.52;;;;;;;1.14;75.83;101286.31;5056745;28;20493;-69
2023/11/20 00:15:39;;;;;;;2.97;2.30;;;;;;;1.16;75.83;101286.34;5058702;28;20045;-68
2023/11/20 00:18:06;;;;;;;2.58;1.27;;;;;;;1.18;75.59;101284.69;5058447;28;20055;-69
2023/11/20 00:20:34;;;;;;;1.92;1.65;;;;;;;1.19;76.27;101279.56;5059238;28;20048;-68
2023/11/20 00:23:01;;;;;;;2.35;1.70;;;;;;;1.20;75.68;101283.03;5061845;28;20048;-69
2023/11/20 00:25:28;;;;;;;2.15;1.45;;;;;;;1.20;75.56;101288.19;5059767;28;20037;-68
2023/11/20 00:27:54;;;;;;;2.72;1.67;;;;;;;1.21;75.63;101285.63;5059653;28;20064;-69
2023/11/20 00:30:22;;;;;;;2.83;1.67;;;;;;;1.24;75.65;101290.00;5060799;28;21511;-69
2023/11/20 00:32:49;;;;;;;2.58;1.75;;;;;;;1.24;75.91;101279.69;5062955;28;20149;-69
2023/11/20 00:35:17;;;;;;;2.38;1.27;;;;;;;1.24;75.54;101282.28;5058158;28;20064;-69
2023/11/20 00:37:45;;;;;;;2.75;1.45;;;;;;;1.25;75.84;101281.44;5061439;28;20056;-68
2023/11/20 00:40:13;;;;;;;3.17;2.13;;;;;;;1.25;75.46;101282.34;5058474;28;20045;-69
2023/11/20 00:42:40;;;;;;;2.13;1.50;;;;;;;1.27;75.72;101287.50;5058912;28;20056;-68
2023/11/20 00:45:08;;;;;;;3.63;1.45;;;;;;;1.25;75.79;101287.47;5060319;28;20072;-69
2023/11/20 00:47:35;;;;;;;4.20;1.35;;;;;;;1.28;75.48;101281.50;5059602;28;20077;-69
2023/11/20 00:50:01;;;;;;;4.40;1.33;;;;;;;1.29;75.84;101286.72;5059615;28;20044;-69
2023/11/20 00:52:29;;;;;;;2.33;1.15;;;;;;;1.29;75.94;101281.56;5060271;28;20149;-68
2023/11/20 00:54:58;;;;;;;1.83;1.70;;;;;;;1.30;75.97;101290.16;5059650;28;20048;-69
2023/11/20 00:57:25;;;;;;;5.30;1.55;;;;;;;1.31;76.14;101295.38;5057388;28;20041;-69
2023/11/20 00:59:52;;;;;;;2.58;1.50;;;;;;;1.32;75.72;101293.66;5059681;28;20049;-68
2023/11/20 01:02:19;;;;;;;2.30;1.40;;;;;;;1.31;75.83;101291.94;5058606;28;20051;-69
2023/11/20 01:04:46;;;;;;;3.28;1.17;;;;;;;1.33;76.05;101297.97;5060170;28;20048;-69
2023/11/20 01:07:13;;;;;;;3.67;1.73;;;;;;;1.33;75.60;101301.41;5059794;28;20047;-69
2023/11/20 01:09:42;;;;;;;2.92;1.48;;;;;;;1.34;75.48;101303.16;5059761;28;20044;-69
2023/11/20 01:12:10;;;;;;;2.22;1.17;;;;;;;1.34;75.57;101298.03;5056965;28;20573;-69
2023/11/20 01:14:37;;;;;;;1.95;1.50;;;;;;;1.33;75.64;101296.25;5059806;28;20496;-70
2023/11/20 01:17:04;;;;;;;1.60;0.93;;;;;;;1.36;75.75;101298.03;5058642;28;20456;-69
2023/11/20 01:19:31;;;;;;;2.45;1.42;;;;;;;1.37;75.92;101307.53;5059345;28;20049;-69
2023/11/20 01:21:58;;;;;;;1.30;1.00;;;;;;;1.38;76.34;101301.53;5058214;28;20486;-69
2023/11/20 01:24:25;;;;;;;1.88;1.23;;;;;;;1.38;76.20;101293.81;5056735;28;20105;-69
2023/11/20 01:26:53;;;;;;;4.20;1.02;;;;;;;1.39;75.98;101297.25;5060874;28;20048;-69
2023/11/20 01:29:21;;;;;;;2.03;1.33;;;;;;;1.39;76.32;101300.69;5057261;28;20056;-69
2023/11/20 01:31:48;;;;;;;1.88;1.40;;;;;;;1.39;75.88;101298.13;5060617;28;20051;-69
2023/11/20 01:34:15;;;;;;;1.42;1.23;;;;;;;1.40;76.13;101296.44;5054734;28;20127;-69
2023/11/20 01:36:42;;;;;;;2.53;1.20;;;;;;;1.40;75.76;101296.44;5058889;28;20037;-69
2023/11/20 01:39:09;;;;;;;1.48;1.13;;;;;;;1.40;75.73;101294.75;5057073;28;20051;-69
2023/11/20 01:41:36;;;;;;;1.98;1.02;;;;;;;1.41;75.60;101298.19;5059267;28;20045;-69
2023/11/20 01:44:04;;;;;;;2.67;1.35;;;;;;;1.40;76.09;101294.75;5058555;28;20041;-69
2023/11/20 01:46:32;;;;;;;1.10;0.68;;;;;;;1.41;75.92;101293.91;5058997;28;20411;-69
2023/11/20 01:49:01;;;;;;;2.28;1.13;;;;;;;1.40;76.21;101297.31;5057813;28;20051;-69
2023/11/20 01:51:29;;;;;;;3.72;1.40;;;;;;;1.41;76.33;101298.19;5058653;28;20048;-69
2023/11/20 01:53:57;;;;;;;3.22;0.82;;;;;;;1.41;75.81;101299.03;5055693;28;20044;-69
2023/11/20 01:56:26;;;;;;;1.98;0.90;;;;;;;1.42;75.97;101294.75;5056169;28;20508;-69
2023/11/20 01:58:54;;;;;;;2.47;1.30;;;;;;;1.41;76.21;101301.63;5059201;28;20063;-69
2023/11/20 02:01:22;;;;;;;2.45;0.95;;;;;;;1.41;75.98;101301.63;5058445;28;20060;-70
2023/11/20 02:03:56;;;;;;;3.85;1.30;;;;;;;1.40;76.19;101293.88;5055947;28;20057;-73
2023/11/20 02:06:24;;;;;;;1.75;0.88;;;;;;;1.42;76.19;101300.78;5060489;28;20040;-73
2023/11/20 02:08:50;;;;;;;3.40;1.88;;;;;;;1.41;75.64;101293.03;5058714;28;20049;-74
2023/11/20 02:11:17;;;;;;;3.50;1.88;;;;;;;1.43;75.88;101299.09;5056586;28;20071;-73
2023/11/20 02:13:45;;;;;;;2.28;1.27;;;;;;;1.43;75.70;101307.69;5059829;28;20398;-69
2023/11/20 02:16:12;;;;;;;2.50;1.10;;;;;;;1.44;75.92;101311.13;5057738;28;20048;-69
2023/11/20 02:18:41;;;;;;;2.00;1.27;;;;;;;1.44;76.12;101311.13;5058021;28;20489;-69
2023/11/20 02:21:09;;;;;;;1.38;1.02;;;;;;;1.44;76.14;101317.16;5059054;28;20047;-69
2023/11/20 02:23:36;;;;;;;2.40;1.35;;;;;;;1.45;75.99;101321.50;5054907;28;20052;-69
2023/11/20 02:26:34;;;;;;;2.63;1.30;;;;;;;1.46;75.76;101318.06;5057714;28;20041;-69
2023/11/20 02:29:07;;;;;;;1.73;1.10;;;;;;;1.47;75.93;101318.94;5056821;28;20048;-68
2023/11/20 02:31:36;;;;;;;1.30;1.00;;;;;;;1.46;76.25;101315.50;5056557;28;20509;-69
2023/11/20 02:34:03;;;;;;;2.17;1.00;;;;;;;1.47;76.52;101314.66;5056107;28;20044;-69
2023/11/20 02:36:30;;;;;;;1.40;1.05;;;;;;;1.48;76.01;101321.56;5060781;28;21214;-69
2023/11/20 02:38:56;;;;;;;1.80;1.15;;;;;;;1.47;76.63;101322.38;5060763;28;20044;-69
2023/11/20 02:41:23;;;;;;;1.77;1.17;;;;;;;1.49;75.97;101328.44;5057241;28;20049;-69
2023/11/20 02:43:50;;;;;;;2.33;1.45;;;;;;;1.50;76.64;101329.31;5056570;28;20101;-69
2023/11/20 02:46:17;;;;;;;1.95;0.90;;;;;;;1.43;76.46;101314.56;5057081;28;20045;-69
2023/11/20 02:48:46;;;;;;;2.10;1.00;;;;;;;1.51;76.05;101331.09;5057407;28;20048;-68
2023/11/20 02:51:13;;;;;;;2.08;1.38;;;;;;;1.51;76.32;101328.50;5057338;28;20406;-69
2023/11/20 02:53:40;;;;;;;2.65;1.10;;;;;;;1.50;76.08;101325.03;5056868;28;20068;-69
2023/11/20 02:56:08;;;;;;;1.00;0.63;;;;;;;1.51;76.44;101316.50;5061054;28;20048;-69
2023/11/20 02:58:35;;;;;;;1.75;0.88;;;;;;;1.51;76.36;101326.81;5063923;28;20071;-68
2023/11/20 03:01:03;;;;;;;2.33;1.10;;;;;;;1.51;76.22;101321.66;5060746;28;21070;-68
2023/11/20 03:03:30;;;;;;;3.00;1.13;;;;;;;1.53;76.62;101329.41;5063094;28;20069;-69
2023/11/20 03:05:59;;;;;;;1.95;1.08;;;;;;;1.52;76.30;101325.97;5061678;28;20040;-69
2023/11/20 03:08:26;;;;;;;1.65;1.10;;;;;;;1.51;76.12;101321.66;5062218;28;20051;-69
2023/11/20 03:10:53;;;;;;;2.42;1.35;;;;;;;1.54;76.24;101326.00;5060902;28;21086;-69
2023/11/20 03:13:23;;;;;;;3.40;1.42;;;;;;;1.53;76.71;101319.97;5053211;28;20056;-70
2023/11/20 03:15:50;;;;;;;1.55;0.95;;;;;;;1.53;75.96;101325.13;5062586;28;20513;-70
2023/11/20 03:18:17;;;;;;;1.60;1.15;;;;;;;1.54;76.76;101326.88;5060206;28;20090;-70
2023/11/20 03:20:44;;;;;;;1.80;1.23;;;;;;;1.54;76.17;101324.31;5062618;28;20052;-70
2023/11/20 03:23:13;;;;;;;3.08;1.10;;;;;;;1.54;76.27;101319.16;5056512;28;20128;-74
2023/11/20 03:25:40;;;;;;;1.55;0.98;;;;;;;1.54;75.94;101316.59;5061706;28;20049;-73
2023/11/20 03:28:07;;;;;;;1.60;1.13;;;;;;;1.56;76.26;101319.19;5058970;28;20051;-73
2023/11/20 03:30:33;;;;;;;2.10;1.10;;;;;;;1.55;76.34;101314.88;5057464;28;20041;-74
2023/11/20 03:33:00;;;;;;;1.70;0.82;;;;;;;1.55;76.05;101320.88;5065973;28;20044;-73
2023/11/20 03:35:27;;;;;;;1.45;0.90;;;;;;;1.56;76.49;101319.19;5061510;28;20055;-73
2023/11/20 03:37:54;;;;;;;3.00;0.90;;;;;;;1.56;76.76;101316.59;5062737;28;20044;-74
2023/11/20 03:40:23;;;;;;;2.05;0.98;;;;;;;1.57;76.80;101321.81;5064135;28;20095;-73
2023/11/20 03:42:50;;;;;;;2.17;1.00;;;;;;;1.58;76.77;101318.41;5061894;28;20052;-73
2023/11/20 03:45:17;;;;;;;2.67;1.27;;;;;;;1.58;76.23;101312.38;5063231;28;20063;-73
2023/11/20 03:47:43;;;;;;;2.65;1.25;;;;;;;1.56;76.86;101314.91;5060350;28;20055;-73
2023/11/20 03:50:11;;;;;;;2.50;0.82;;;;;;;1.57;76.52;101316.66;5063083;28;20045;-74
2023/11/20 03:52:38;;;;;;;2.42;0.90;;;;;;;1.59;76.37;101321.84;5060402;28;20079;-74
2023/11/20 03:55:05;;;;;;;2.28;1.00;;;;;;;1.58;76.24;101314.94;5056865;28;20056;-75
2023/11/20 03:57:34;;;;;;;1.45;1.00;;;;;;;1.60;76.37;101317.59;5062954;28;20045;-72
2023/11/20 04:00:00;;;;;;;3.33;1.52;;;;;;;1.60;76.57;101315.88;5063586;28;20044;-73
2023/11/20 04:02:27;;;;;;;1.35;1.02;;;;;;;1.60;77.03;101320.16;5062934;28;20049;-73
2023/11/20 04:04:54;;;;;;;1.45;0.77;;;;;;;1.60;76.47;101313.31;5058368;28;20048;-73
2023/11/20 04:07:23;;;;;;;1.83;0.70;;;;;;;1.60;76.60;101315.00;5059892;28;20040;-73
2023/11/20 04:09:49;;;;;;;1.80;0.93;;;;;;;1.62;77.00;101318.47;5063654;28;20091;-74
2023/11/20 04:12:16;;;;;;;1.50;0.75;;;;;;;1.63;76.94;101320.25;5060275;28;20512;-74
2023/11/20 04:14:44;;;;;;;0.98;0.70;;;;;;;1.64;76.63;101321.97;5059674;28;20131;-74
2023/11/20 04:17:11;;;;;;;0.90;0.65;;;;;;;1.63;77.20;101315.09;5057254;28;20048;-74
2023/11/20 04:19:38;;;;;;;1.92;1.05;;;;;;;1.63;76.78;101320.25;5060102;28;20049;-74
2023/11/20 04:22:07;;;;;;;0.85;0.70;;;;;;;1.64;76.81;101321.97;5060390;28;20641;-75
2023/11/20 04:24:34;;;;;;;2.03;1.08;;;;;;;1.64;76.80;101319.41;5062348;28;20449;-75
2023/11/20 04:27:00;;;;;;;1.77;0.65;;;;;;;1.64;76.74;101317.69;5060383;28;20056;-75
2023/11/20 04:29:27;;;;;;;0.82;0.47;;;;;;;1.65;76.54;101316.88;5063945;28;20044;-75
2023/11/20 04:31:55;;;;;;;0.98;0.70;;;;;;;1.65;76.41;101318.56;5062719;28;20053;-75
2023/11/20 04:34:23;;;;;;;1.77;0.60;;;;;;;1.65;77.04;101315.97;5060338;28;20048;-69
2023/11/20 04:36:50;;;;;;;1.42;0.80;;;;;;;1.66;76.62;101320.31;5059407;28;20045;-69
2023/11/20 04:39:17;;;;;;;0.85;0.60;;;;;;;1.65;76.87;101324.59;5059199;28;20087;-69
2023/11/20 04:41:44;;;;;;;1.63;0.90;;;;;;;1.66;76.53;101323.75;5060697;28;20433;-69
2023/11/20 04:44:11;;;;;;;1.00;0.63;;;;;;;1.67;76.82;101327.19;5058998;28;20409;-70
2023/11/20 04:46:37;;;;;;;1.33;0.55;;;;;;;1.65;77.26;101314.31;5062430;28;20041;-69
2023/11/20 04:49:06;;;;;;;2.22;0.80;;;;;;;1.67;76.83;101329.78;5062054;28;20080;-69
2023/11/20 04:51:32;;;;;;;2.17;0.70;;;;;;;1.66;76.50;101322.91;5060923;28;20048;-69
2023/11/20 04:53:59;;;;;;;1.90;0.70;;;;;;;1.68;77.25;101334.09;5061705;28;20452;-69
2023/11/20 04:56:26;;;;;;;0.93;0.43;;;;;;;1.68;76.62;101334.97;5059552;28;20055;-69
2023/11/20 04:58:53;;;;;;;3.42;0.70;;;;;;;1.68;76.59;101336.66;5062823;28;20055;-69
2023/11/20 05:01:22;;;;;;;1.27;0.70;;;;;;;1.69;77.25;101338.41;5058504;28;20480;-69
2023/11/20 05:03:49;;;;;;;2.40;0.98;;;;;;;1.69;77.02;101347.03;5060077;28;20064;-69
2023/11/20 05:06:17;;;;;;;1.23;0.63;;;;;;;1.69;77.13;101335.84;5058167;28;20610;-69
2023/11/20 05:08:44;;;;;;;2.25;0.70;;;;;;;1.71;76.72;101347.06;5058923;28;20048;-69
2023/11/20 05:11:13;;;;;;;1.38;0.60;;;;;;;1.70;77.12;101347.88;5055236;28;20140;-69
2023/11/20 05:13:39;;;;;;;0.65;0.45;;;;;;;1.71;76.89;101345.38;5058185;28;20177;-69
2023/11/20 05:16:07;;;;;;;1.08;0.60;;;;;;;1.71;76.76;101347.06;5057028;28;20041;-70
2023/11/20 05:18:34;;;;;;;1.27;0.52;;;;;;;1.71;77.04;101350.50;5054576;28;20048;-69
2023/11/20 05:21:01;;;;;;;1.67;0.88;;;;;;;1.71;76.83;101355.66;5060832;28;20692;-69
2023/11/20 05:23:29;;;;;;;1.88;0.73;;;;;;;1.72;76.83;101351.38;5058201;28;20080;-69
2023/11/20 05:25:56;;;;;;;0.73;0.50;;;;;;;1.73;76.74;101363.41;5061705;28;20536;-69
2023/11/20 05:28:23;;;;;;;2.72;0.90;;;;;;;1.73;76.78;101358.25;5059414;28;20055;-69
2023/11/20 05:30:50;;;;;;;0.70;0.40;;;;;;;1.73;77.24;101353.13;5061003;28;20049;-69
2023/11/20 05:33:17;;;;;;;0.85;0.45;;;;;;;1.73;77.20;101360.84;5056962;28;20049;-69
2023/11/20 05:35:43;;;;;;;0.65;0.47;;;;;;;1.74;76.87;101367.75;5060181;28;20044;-69
2023/11/20 05:38:10;;;;;;;0.90;0.50;;;;;;;1.74;76.71;101357.47;5058306;28;20396;-69
2023/11/20 05:40:38;;;;;;;0.73;0.50;;;;;;;1.74;77.14;101357.47;5060097;28;20057;-69
2023/11/20 05:43:05;;;;;;;1.58;0.40;;;;;;;1.74;76.74;101366.03;5060632;28;20050;-74
2023/11/20 05:45:32;;;;;;;1.10;0.55;;;;;;;1.75;77.32;101366.91;5062486;28;20153;-73
2023/11/20 05:47:59;;;;;;;1.02;0.50;;;;;;;1.75;76.71;101366.91;5057860;28;20048;-74
2023/11/20 05:50:26;;;;;;;0.65;0.43;;;;;;;1.75;76.74;101369.50;5057337;28;20049;-73
2023/11/20 05:52:53;;;;;;;1.30;0.70;;;;;;;1.74;76.85;101360.91;5056130;28;20064;-75
2023/11/20 05:55:19;;;;;;;1.67;0.60;;;;;;;1.74;77.13;101363.47;5058304;28;20045;-73
2023/11/20 05:57:48;;;;;;;1.10;0.60;;;;;;;1.74;76.97;101371.19;5061122;28;20049;-74
2023/11/20 06:00:15;;;;;;;0.60;0.50;;;;;;;1.73;77.13;101368.56;5048982;28;20049;-73
2023/11/20 06:02:42;;;;;;;0.77;0.50;;;;;;;1.73;77.06;101373.72;5043768;28;20049;-73
2023/11/20 06:05:10;;;;;;;0.73;0.50;;;;;;;1.73;77.00;101379.72;5058976;28;20404;-73
2023/11/20 06:07:37;;;;;;;0.90;0.70;;;;;;;1.74;76.60;101375.47;5060596;28;20045;-74
2023/11/20 06:10:04;;;;;;;0.73;0.50;;;;;;;1.74;77.20;101383.22;5059525;28;20047;-74
2023/11/20 06:12:31;;;;;;;1.17;0.50;;;;;;;1.74;76.70;101385.78;5058857;28;20037;-73
2023/11/20 06:15:00;;;;;;;1.75;0.40;;;;;;;1.74;76.80;101389.22;5062801;28;20497;-74
2023/11/20 06:17:27;;;;;;;1.50;0.50;;;;;;;1.74;77.18;101390.94;5057107;28;20103;-75
2023/11/20 06:19:54;;;;;;;0.80;0.50;;;;;;;1.75;76.83;101392.66;5060793;28;20048;-74
2023/11/20 06:22:20;;;;;;;1.52;0.50;;;;;;;1.74;76.94;101386.66;5059040;28;20040;-74
2023/11/20 06:24:47;;;;;;;1.10;0.52;;;;;;;1.74;77.24;101389.22;5060705;28;20044;-73
2023/11/20 06:27:14;;;;;;;1.25;0.55;;;;;;;1.76;76.83;101386.69;5059566;28;20103;-74
2023/11/20 06:29:41;;;;;;;1.60;0.43;;;;;;;1.75;76.84;101379.78;5058863;28;20044;-72
2023/11/20 06:32:09;;;;;;;0.88;0.40;;;;;;;1.75;76.82;101383.22;5059013;28;20418;-74
2023/11/20 06:34:36;;;;;;;1.00;0.40;;;;;;;1.74;76.94;101378.06;5054614;28;20063;-74
2023/11/20 06:37:03;;;;;;;1.25;0.40;;;;;;;1.75;77.47;101377.22;5057391;28;20049;-73
2023/11/20 06:39:30;;;;;;;1.00;0.50;;;;;;;1.75;77.25;101372.06;5060926;28;20045;-73
2023/11/20 06:41:57;;;;;;;0.68;0.47;;;;;;;1.74;76.67;101381.50;5057947;28;20494;-74
2023/11/20 06:44:24;;;;;;;0.93;0.47;;;;;;;1.75;77.29;101378.09;5058498;28;20056;-69
2023/11/20 06:46:52;;;;;;;1.05;0.45;;;;;;;1.74;77.20;101376.34;5055786;28;20048;-72
2023/11/20 06:49:20;;;;;;;0.70;0.40;;;;;;;1.74;76.75;101375.47;5058865;28;20053;-70
2023/11/20 06:51:47;;;;;;;1.08;0.50;;;;;;;1.75;76.79;101384.94;5058090;28;20382;-70
2023/11/20 06:54:14;;;;;;;1.35;0.47;;;;;;;1.75;77.08;101387.53;5060613;28;20048;-71
2023/11/20 06:56:41;;;;;;;0.60;0.47;;;;;;;1.75;77.21;101390.97;5059119;28;20065;-70
2023/11/20 06:59:07;;;;;;;1.00;0.50;;;;;;;1.75;77.20;101395.25;5056477;28;20131;-70
2023/11/20 07:01:34;;;;;;;2.33;0.32;;;;;;;1.74;76.73;101401.25;5062866;28;20040;-74
2023/11/20 07:04:01;;;;;;;0.98;0.70;;;;;;;1.72;76.40;101403.75;5056597;28;20428;-69
2023/11/20 07:06:30;;;;;;;0.90;0.50;;;;;;;1.73;76.97;101407.19;5057094;28;20503;-71
2023/11/20 07:08:57;;;;;;;0.77;0.50;;;;;;;1.72;76.95;101416.63;5063353;28;20044;-71
2023/11/20 07:11:24;;;;;;;0.80;0.40;;;;;;;1.71;76.76;101406.31;5057873;28;20052;-71
2023/11/20 07:13:51;;;;;;;1.00;0.47;;;;;;;1.64;76.46;101401.81;5056801;28;20050;-71
2023/11/20 07:16:17;;;;;;;0.80;0.40;;;;;;;1.70;76.40;101412.28;5052212;28;20043;-71
2023/11/20 07:18:44;;;;;;;1.38;0.40;;;;;;;1.69;76.59;101415.69;5051818;28;20045;-75
2023/11/20 07:21:11;;;;;;;2.05;0.40;;;;;;;1.67;76.86;101410.47;5052378;28;20036;-72
2023/11/20 07:23:39;;;;;;;2.50;0.60;;;;;;;1.68;76.62;101419.06;5054030;28;20664;-71
2023/11/20 07:26:06;;;;;;;1.55;0.70;;;;;;;1.66;76.51;101424.19;5051309;28;20127;-72
2023/11/20 07:28:34;;;;;;;1.02;0.70;;;;;;;1.65;76.69;101418.97;5059237;28;20056;-72
2023/11/20 07:31:02;;;;;;;1.17;0.77;;;;;;;1.65;76.28;101429.28;5056107;28;20041;-72
2023/11/20 07:33:28;;;;;;;1.10;0.75;;;;;;;1.63;76.34;101428.41;5058664;28;20060;-72
2023/11/20 07:35:55;;;;;;;1.80;0.60;;;;;;;1.62;76.61;101436.94;5055803;28;20553;-72
2023/11/20 07:38:22;;;;;;;1.35;0.55;;;;;;;1.61;76.51;101441.22;5055754;28;20051;-72
2023/11/20 07:40:51;;;;;;;4.70;0.90;;;;;;;1.60;76.78;101442.06;5055339;28;20041;-72
2023/11/20 07:43:18;;;;;;;2.38;0.55;;;;;;;1.60;76.62;101443.75;5060512;28;20132;-71
2023/11/20 07:45:45;;;;;;;1.42;0.45;;;;;;;1.52;76.37;101431.53;5060517;28;20548;-72
2023/11/20 07:48:12;;;;;;;2.05;0.50;;;;;;;1.57;76.30;101442.84;5060621;28;20072;-72
2023/11/20 07:50:39;;;;;;;3.92;0.70;;;;;;;1.57;76.27;101449.69;5061001;28;20044;-72
2023/11/20 07:53:06;;;;;;;1.38;0.68;;;;;;;1.56;76.77;101446.22;5063359;28;20041;-72
2023/11/20 07:55:33;;;;;;;2.35;0.57;;;;;;;1.55;76.49;101447.06;5065525;28;20045;-72
2023/11/20 07:58:01;;;;;;;0.68;0.50;;;;;;;1.55;76.76;101449.63;5060768;28;20047;-73
2023/11/20 08:00:28;;;;;;;1.30;0.73;;;;;;;1.53;76.99;101446.13;5058545;28;20041;-73
2023/11/20 08:02:55;;;;;;;1.60;0.73;;;;;;;1.53;76.29;101448.72;5061764;28;20508;-71
2023/11/20 08:05:22;;;;;;;2.17;0.80;;;;;;;1.53;76.11;101448.72;5060564;28;20041;-71
2023/11/20 08:07:49;;;;;;;2.40;0.63;;;;;;;1.53;76.74;101453.00;5060723;28;20037;-71
2023/11/20 08:10:18;;;;;;;0.98;0.57;;;;;;;1.49;76.72;101451.16;5060759;28;20052;-71
2023/11/20 08:12:46;;;;;;;1.83;0.70;;;;;;;1.51;76.08;101458.09;5061260;28;20040;-71
2023/11/20 08:15:14;;;;;;;2.97;0.60;;;;;;;1.50;76.71;101458.91;5059567;28;20118;-71
2023/11/20 08:17:41;;;;;;;1.58;0.75;;;;;;;1.50;76.73;101458.06;5059493;28;20412;-71
2023/11/20 08:20:09;;;;;;;1.30;0.57;;;;;;;1.51;76.19;101454.66;5058388;28;20053;-71
2023/11/20 08:22:37;;;;;;;1.58;0.70;;;;;;;1.50;76.48;101458.91;5062308;28;22301;-71
2023/11/20 08:25:04;;;;;;;1.08;0.57;;;;;;;1.50;76.91;101453.78;5061923;28;20056;-71
2023/11/20 08:27:31;;;;;;;4.72;1.05;;;;;;;1.51;77.02;101465.84;5061848;28;20128;-71
2023/11/20 08:29:58;;;;;;;2.40;1.17;;;;;;;1.51;76.98;101458.09;5059223;28;20055;-71
2023/11/20 08:32:26;;;;;;;2.45;1.25;;;;;;;1.52;76.57;101462.41;5062890;28;20060;-71
2023/11/20 08:34:53;;;;;;;2.83;0.65;;;;;;;1.52;76.80;101466.69;5062462;28;20052;-71
2023/11/20 08:37:20;;;;;;;2.80;0.57;;;;;;;1.53;76.88;101458.13;5061317;28;20056;-71
2023/11/20 08:39:48;;;;;;;2.35;0.75;;;;;;;1.53;77.00;101463.28;5064236;28;20485;-71
2023/11/20 08:42:15;;;;;;;5.18;0.90;;;;;;;1.53;76.65;101466.72;5060519;28;20064;-71
2023/11/20 08:44:42;;;;;;;3.08;0.90;;;;;;;1.53;76.73;101464.16;5063942;28;20452;-71
2023/11/20 08:47:09;;;;;;;2.85;0.70;;;;;;;1.53;76.53;101468.44;5057732;28;20045;-71
2023/11/20 08:49:38;;;;;;;1.90;0.98;;;;;;;1.48;76.54;101459.69;5062788;28;20043;-71
2023/11/20 08:52:06;;;;;;;1.88;0.95;;;;;;;1.53;77.04;101479.59;5059867;28;20052;-71
2023/11/20 08:54:33;;;;;;;2.88;0.75;;;;;;;1.53;76.81;101477.03;5066314;28;20048;-71
2023/11/20 08:56:59;;;;;;;2.95;0.80;;;;;;;1.53;76.49;101469.31;5061459;28;20482;-70
2023/11/20 08:59:26;;;;;;;1.98;0.70;;;;;;;1.53;76.90;101474.44;5059019;28;20572;-71
2023/11/20 09:01:54;;;;;;;3.45;0.70;;;;;;;1.53;77.16;101474.44;5059069;28;20056;-71
2023/11/20 09:04:21;;;;;;;2.30;0.95;;;;;;;1.53;76.89;101477.03;5059574;28;20083;-75
2023/11/20 09:06:49;;;;;;;1.95;1.00;;;;;;;1.54;76.59;101486.53;5058184;28;20572;-75
2023/11/20 09:09:16;;;;;;;1.67;0.82;;;;;;;1.54;77.05;101485.66;5057571;28;20048;-75
2023/11/20 09:11:44;;;;;;;2.70;0.90;;;;;;;1.53;77.10;101478.72;5059943;28;20055;-75
2023/11/20 09:14:12;;;;;;;2.00;1.17;;;;;;;1.55;77.28;101483.09;5060971;28;20052;-74
2023/11/20 09:16:39;;;;;;;3.88;0.90;;;;;;;1.57;76.78;101481.47;5060679;28;20053;-73
2023/11/20 09:19:06;;;;;;;3.03;0.93;;;;;;;1.58;76.72;101490.06;5057123;28;20045;-73
2023/11/20 09:21:34;;;;;;;1.55;1.02;;;;;;;1.58;77.31;101487.47;5061297;28;20051;-73
2023/11/20 09:24:02;;;;;;;1.63;0.70;;;;;;;1.56;76.74;101484.84;5059791;28;20098;-74
2023/11/20 09:26:29;;;;;;;2.90;1.05;;;;;;;1.58;77.08;101488.34;5060494;28;20186;-72
2023/11/20 09:28:56;;;;;;;2.03;0.95;;;;;;;1.59;76.94;101484.06;5060299;28;20041;-73
2023/11/20 09:31:22;;;;;;;6.10;0.95;;;;;;;1.62;76.94;101484.16;5059193;28;20500;-73
2023/11/20 09:33:50;;;;;;;2.78;0.93;;;;;;;1.63;76.45;101480.78;5059869;28;20489;-73
2023/11/20 09:36:17;;;;;;;1.65;1.17;;;;;;;1.64;76.99;101487.66;5060308;28;20055;-73
2023/11/20 09:38:45;;;;;;;3.90;0.85;;;;;;;1.63;76.70;101480.78;5063352;28;20052;-73
2023/11/20 09:41:14;;;;;;;3.15;1.20;;;;;;;1.66;76.56;101485.13;5058699;28;20108;-72
2023/11/20 09:43:43;;;;;;;2.17;1.08;;;;;;;1.67;76.74;101487.75;5061527;28;20044;-75
2023/11/20 09:46:12;;;;;;;2.15;1.35;;;;;;;1.66;76.75;101482.56;5060880;28;20044;-73
2023/11/20 09:48:40;;;;;;;1.02;0.77;;;;;;;1.67;76.96;101481.72;5058252;28;20053;-74
2023/11/20 09:51:09;;;;;;;1.70;0.82;;;;;;;1.67;76.98;101484.28;5058131;28;20044;-74
2023/11/20 09:53:39;;;;;;;1.52;0.88;;;;;;;1.68;76.75;101481.78;5060129;28;20053;-73
2023/11/20 09:56:09;;;;;;;2.38;1.70;;;;;;;1.70;76.68;101481.81;5059889;28;20723;-73
2023/11/20 09:58:38;;;;;;;3.28;1.00;;;;;;;1.71;76.65;101479.28;5058777;28;20048;-73
2023/11/20 10:01:06;;;;;;;1.73;0.90;;;;;;;1.70;76.90;101476.66;5058096;28;20040;-73
2023/11/20 10:03:37;;;;;;;1.63;0.98;;;;;;;1.72;76.90;101480.16;5055517;28;20060;-73
2023/11/20 10:06:07;;;;;;;1.63;0.80;;;;;;;1.74;76.78;101471.66;5058675;28;20067;-74
2023/11/20 10:08:36;;;;;;;1.50;1.00;;;;;;;1.74;77.34;101465.63;5060571;28;20102;-74
2023/11/20 10:11:03;;;;;;;1.92;0.90;;;;;;;1.77;77.16;101463.13;5063118;28;20083;-73
2023/11/20 10:13:31;;;;;;;3.15;0.98;;;;;;;1.72;76.96;101455.28;5059147;28;20049;-72
2023/11/20 10:16:01;;;;;;;1.30;0.90;;;;;;;1.80;77.31;101463.22;5057170;28;20416;-71
2023/11/20 10:18:28;;;;;;;1.90;0.95;;;;;;;1.83;77.17;101463.31;5055964;28;20040;-71
2023/11/20 10:20:57;;;;;;;4.30;0.60;;;;;;;1.80;76.96;101458.06;5056415;28;20446;-71
2023/11/20 10:23:24;;;;;;;1.02;0.60;;;;;;;1.86;77.23;101467.69;5060356;28;20056;-73
2023/11/20 10:25:52;;;;;;;2.08;0.70;;;;;;;1.87;77.14;101467.69;5061485;28;20036;-73
2023/11/20 10:28:22;;;;;;;2.45;0.60;;;;;;;1.88;76.89;101469.47;5057303;28;20614;-73
2023/11/20 10:30:49;;;;;;;1.95;0.80;;;;;;;1.90;76.88;101464.34;5057416;28;20076;-73
2023/11/20 10:33:18;;;;;;;1.08;0.77;;;;;;;1.92;77.00;101460.97;5058692;28;20046;-73
2023/11/20 10:35:45;;;;;;;2.97;0.50;;;;;;;1.93;77.25;101460.13;5057355;28;20057;-73
2023/11/20 10:38:12;;;;;;;1.38;0.70;;;;;;;1.95;77.03;101460.19;5058002;28;20048;-73
2023/11/20 10:40:44;;;;;;;1.88;0.70;;;;;;;1.98;77.10;101468.00;5058705;28;20049;-73
2023/11/20 10:43:11;;;;;;;1.25;0.60;;;;;;;1.98;77.33;101468.88;5059348;28;20041;-73
2023/11/20 10:45:38;;;;;;;2.03;0.60;;;;;;;1.98;76.69;101462.84;5057861;28;20049;-72
2023/11/20 10:48:07;;;;;;;1.00;0.60;;;;;;;2.00;76.75;101459.50;5059517;28;20114;-73
2023/11/20 10:50:36;;;;;;;2.95;0.57;;;;;;;2.05;76.43;101467.38;5057118;28;20076;-73
2023/11/20 10:53:07;;;;;;;3.53;0.85;;;;;;;2.06;76.81;101469.09;5059674;28;20127;-73
2023/11/20 10:55:42;;;;;;;2.08;1.08;;;;;;;2.09;76.52;101466.59;5062683;28;20045;-72
2023/11/20 10:58:11;;;;;;;1.20;0.60;;;;;;;2.11;76.54;101474.38;5057776;28;20041;-73
2023/11/20 11:00:40;;;;;;;1.45;0.60;;;;;;;2.13;76.80;101475.28;5061558;28;20040;-73
2023/11/20 11:03:10;;;;;;;1.80;0.50;;;;;;;2.13;76.58;101471.00;5056222;28;20132;-73
2023/11/20 11:05:43;;;;;;;1.38;0.60;;;;;;;2.16;76.61;101470.22;5057043;28;20041;-73
2023/11/20 11:08:12;;;;;;;1.60;0.82;;;;;;;2.18;76.35;101465.97;5060381;28;20048;-73
2023/11/20 11:10:44;;;;;;;2.70;0.60;;;;;;;2.17;76.47;101470.25;5060712;28;20099;-73
2023/11/20 11:13:12;;;;;;;1.85;0.52;;;;;;;2.16;76.54;101468.53;5057896;28;20052;-73
2023/11/20 11:15:39;;;;;;;3.28;0.80;;;;;;;2.19;76.29;101467.72;5061689;28;20060;-73
2023/11/20 11:18:08;;;;;;;1.63;0.50;;;;;;;2.22;76.29;101462.63;5063074;28;20044;-73
2023/11/20 11:20:43;;;;;;;1.60;0.50;;;;;;;2.23;76.02;101460.09;5063992;28;20080;-72
2023/11/20 11:23:13;;;;;;;1.05;0.40;;;;;;;2.25;76.08;101467.91;5058399;28;20476;-74
2023/11/20 11:25:49;;;;;;;1.55;0.40;;;;;;;2.26;76.21;101474.78;5063371;28;20153;-74
2023/11/20 11:28:18;;;;;;;;;;;;;;;2.27;76.05;101471.38;5062586;28;20045;-73
2023/11/20 11:30:48;;;;;;;0.98;0.50;;;;;;;2.27;76.18;101468.78;5060304;28;19920;-73
2023/11/20 11:33:45;;;;;;;2.85;0.70;;;;;;;2.29;76.12;101468.84;5060610;28;20049;-71
2023/11/20 11:36:26;;;;;;;1.20;0.70;;;;;;;2.30;76.05;101470.59;5060930;28;20067;-72